A4086 KRND-KDLF
Flight info
| Callsign | A4086 |
|---|---|
| Flight time | 1h 9m |
| Altitude | 6000 |
| Route | ALISS7 ALISS WEBOX WEBOX4 |
| Aircraft | S22T/L-SDGRY/S |
Departure
| Time | 2026-05-07 22:48 |
|---|---|
| Airport | Randolph Air Force Base (KRND) |
Arrival
| Time | 2026-05-07 23:58 |
|---|---|
| Airport | Laughlin Air Force Base (KDLF) |
| Time | Latitude | Longitude | Altitude | Speed | Heading |
|---|---|---|---|---|---|
| 2026-05-07 22:12 | 29.52598 | -98.28385 | 745 ft | 0 kts | 57° |
| 2026-05-07 22:40 | 29.52599 | -98.28383 | 745 ft | 2 kts | 68° |
| 2026-05-07 22:41 | 29.52579 | -98.28394 | 743 ft | 9 kts | 258° |
| 2026-05-07 22:41 | 29.52562 | -98.28495 | 744 ft | 12 kts | 331° |
| 2026-05-07 22:41 | 29.52633 | -98.28538 | 744 ft | 11 kts | 331° |
| 2026-05-07 22:41 | 29.52679 | -98.28569 | 745 ft | 11 kts | 329° |
| 2026-05-07 22:42 | 29.52714 | -98.28524 | 745 ft | 11 kts | 149° |
| 2026-05-07 22:42 | 29.52663 | -98.28490 | 745 ft | 14 kts | 154° |
| 2026-05-07 22:42 | 29.52567 | -98.28426 | 744 ft | 18 kts | 146° |
| 2026-05-07 22:42 | 29.52477 | -98.28368 | 743 ft | 16 kts | 160° |
| 2026-05-07 22:43 | 29.52395 | -98.28329 | 743 ft | 12 kts | 238° |
| 2026-05-07 22:43 | 29.52320 | -98.28333 | 741 ft | 16 kts | 148° |
| 2026-05-07 22:43 | 29.52209 | -98.28260 | 737 ft | 16 kts | 150° |
| 2026-05-07 22:43 | 29.52124 | -98.28204 | 736 ft | 16 kts | 149° |
| 2026-05-07 22:44 | 29.52026 | -98.28140 | 733 ft | 14 kts | 150° |
| 2026-05-07 22:44 | 29.51957 | -98.28094 | 730 ft | 12 kts | 148° |
| 2026-05-07 22:44 | 29.51865 | -98.28032 | 728 ft | 18 kts | 151° |
| 2026-05-07 22:44 | 29.51759 | -98.27962 | 726 ft | 15 kts | 148° |
| 2026-05-07 22:45 | 29.51656 | -98.27894 | 724 ft | 16 kts | 150° |
| 2026-05-07 22:45 | 29.51592 | -98.27884 | 723 ft | 12 kts | 217° |
| 2026-05-07 22:45 | 29.51554 | -98.27951 | 720 ft | 0 kts | 243° |
| 2026-05-07 22:45 | 29.51553 | -98.27952 | 720 ft | 2 kts | 243° |
| 2026-05-07 22:46 | 29.51550 | -98.28019 | 723 ft | 12 kts | 292° |
| 2026-05-07 22:46 | 29.51594 | -98.28072 | 721 ft | 0 kts | 330° |
| 2026-05-07 22:47 | 29.51656 | -98.28112 | 723 ft | 40 kts | 330° |
| 2026-05-07 22:48 | 29.52058 | -98.28378 | 739 ft | 88 kts | 331° |
| 2026-05-07 22:48 | 29.52598 | -98.28753 | 970 ft | 90 kts | 333° |
| 2026-05-07 22:48 | 29.53117 | -98.29130 | 1197 ft | 94 kts | 333° |
| 2026-05-07 22:48 | 29.53637 | -98.29574 | 1466 ft | 92 kts | 328° |
| 2026-05-07 22:49 | 29.54125 | -98.30057 | 1741 ft | 94 kts | 330° |
| 2026-05-07 22:49 | 29.54611 | -98.30555 | 1986 ft | 93 kts | 327° |
| 2026-05-07 22:49 | 29.55072 | -98.31082 | 2284 ft | 97 kts | 322° |
| 2026-05-07 22:49 | 29.55517 | -98.31715 | 2499 ft | 104 kts | 315° |
| 2026-05-07 22:50 | 29.55939 | -98.32381 | 2811 ft | 103 kts | 310° |
| 2026-05-07 22:50 | 29.56336 | -98.33057 | 3089 ft | 104 kts | 309° |
| 2026-05-07 22:50 | 29.56724 | -98.33758 | 3414 ft | 102 kts | 302° |
| 2026-05-07 22:50 | 29.57058 | -98.34467 | 3747 ft | 101 kts | 301° |
| 2026-05-07 22:51 | 29.57379 | -98.35201 | 4029 ft | 104 kts | 300° |
| 2026-05-07 22:51 | 29.57687 | -98.35952 | 4312 ft | 104 kts | 297° |
| 2026-05-07 22:51 | 29.57976 | -98.36715 | 4595 ft | 104 kts | 294° |
| 2026-05-07 22:51 | 29.58281 | -98.37472 | 4850 ft | 105 kts | 309° |
| 2026-05-07 22:52 | 29.58894 | -98.37903 | 5129 ft | 104 kts | 314° |
| 2026-05-07 22:52 | 29.59340 | -98.38549 | 5521 ft | 103 kts | 310° |
| 2026-05-07 22:52 | 29.59807 | -98.39170 | 5928 ft | 102 kts | 307° |
| 2026-05-07 22:52 | 29.60250 | -98.39785 | 6389 ft | 97 kts | 304° |
| 2026-05-07 22:53 | 29.60679 | -98.40390 | 6743 ft | 100 kts | 304° |
| 2026-05-07 22:53 | 29.61115 | -98.41008 | 7123 ft | 98 kts | 304° |
| 2026-05-07 22:53 | 29.61544 | -98.41613 | 7499 ft | 98 kts | 303° |
| 2026-05-07 22:53 | 29.61972 | -98.42221 | 7866 ft | 99 kts | 302° |
| 2026-05-07 22:54 | 29.62399 | -98.42828 | 8278 ft | 97 kts | 301° |
| 2026-05-07 22:54 | 29.62821 | -98.43430 | 8668 ft | 96 kts | 300° |
| 2026-05-07 22:54 | 29.63240 | -98.44027 | 9100 ft | 96 kts | 299° |
| 2026-05-07 22:54 | 29.63656 | -98.44622 | 9506 ft | 95 kts | 298° |
| 2026-05-07 22:55 | 29.64068 | -98.45207 | 9925 ft | 93 kts | 297° |
| 2026-05-07 22:55 | 29.64474 | -98.45786 | 10305 ft | 92 kts | 297° |
| 2026-05-07 22:55 | 29.64875 | -98.46361 | 10679 ft | 92 kts | 296° |
| 2026-05-07 22:55 | 29.65276 | -98.46935 | 11063 ft | 92 kts | 295° |
| 2026-05-07 22:56 | 29.65677 | -98.47506 | 11433 ft | 92 kts | 295° |
| 2026-05-07 22:56 | 29.66074 | -98.48073 | 11799 ft | 92 kts | 294° |
| 2026-05-07 22:56 | 29.66471 | -98.48638 | 12200 ft | 90 kts | 293° |
| 2026-05-07 22:56 | 29.66862 | -98.49198 | 12586 ft | 90 kts | 292° |
| 2026-05-07 22:57 | 29.67252 | -98.49754 | 12980 ft | 89 kts | 291° |
| 2026-05-07 22:57 | 29.67640 | -98.50309 | 13378 ft | 89 kts | 291° |
| 2026-05-07 22:57 | 29.68026 | -98.50860 | 13796 ft | 88 kts | 291° |
| 2026-05-07 22:57 | 29.68413 | -98.51419 | 14081 ft | 97 kts | 290° |
| 2026-05-07 22:58 | 29.68892 | -98.52121 | 14101 ft | 124 kts | 294° |
| 2026-05-07 22:58 | 29.69480 | -98.52957 | 14102 ft | 143 kts | 296° |
| 2026-05-07 22:58 | 29.70134 | -98.53881 | 14098 ft | 154 kts | 297° |
| 2026-05-07 22:58 | 29.70827 | -98.54863 | 14092 ft | 161 kts | 297° |
| 2026-05-07 22:59 | 29.71544 | -98.55881 | 14086 ft | 165 kts | 297° |
| 2026-05-07 22:59 | 29.72272 | -98.56922 | 14088 ft | 168 kts | 297° |
| 2026-05-07 22:59 | 29.72999 | -98.57964 | 14086 ft | 170 kts | 297° |
| 2026-05-07 22:59 | 29.73742 | -98.59027 | 14085 ft | 171 kts | 297° |
| 2026-05-07 23:00 | 29.74489 | -98.60095 | 14087 ft | 172 kts | 298° |
| 2026-05-07 23:00 | 29.75238 | -98.61170 | 14080 ft | 172 kts | 298° |
| 2026-05-07 23:00 | 29.75990 | -98.62243 | 14080 ft | 171 kts | 298° |
| 2026-05-07 23:00 | 29.76731 | -98.63297 | 14076 ft | 167 kts | 297° |
| 2026-05-07 23:01 | 29.77453 | -98.64338 | 14077 ft | 166 kts | 297° |
| 2026-05-07 23:01 | 29.78177 | -98.65377 | 14074 ft | 166 kts | 297° |
| 2026-05-07 23:01 | 29.78906 | -98.66412 | 14073 ft | 166 kts | 298° |
| 2026-05-07 23:01 | 29.79637 | -98.67442 | 14070 ft | 166 kts | 298° |
| 2026-05-07 23:02 | 29.80368 | -98.68471 | 14068 ft | 166 kts | 298° |
| 2026-05-07 23:02 | 29.81097 | -98.69500 | 14067 ft | 166 kts | 298° |
| 2026-05-07 23:02 | 29.81827 | -98.70530 | 14063 ft | 166 kts | 298° |
| 2026-05-07 23:02 | 29.82555 | -98.71560 | 14064 ft | 166 kts | 298° |
| 2026-05-07 23:03 | 29.83278 | -98.72581 | 14070 ft | 167 kts | 299° |
| 2026-05-07 23:03 | 29.84013 | -98.73624 | 14075 ft | 168 kts | 299° |
| 2026-05-07 23:03 | 29.84752 | -98.74669 | 14072 ft | 168 kts | 299° |
| 2026-05-07 23:03 | 29.85494 | -98.75713 | 14077 ft | 168 kts | 299° |
| 2026-05-07 23:04 | 29.86237 | -98.76759 | 14095 ft | 169 kts | 299° |
| 2026-05-07 23:04 | 29.86973 | -98.77807 | 14096 ft | 168 kts | 299° |
| 2026-05-07 23:04 | 29.87712 | -98.78849 | 14097 ft | 168 kts | 299° |
| 2026-05-07 23:04 | 29.88449 | -98.79893 | 14110 ft | 168 kts | 299° |
| 2026-05-07 23:05 | 29.89189 | -98.80939 | 14104 ft | 168 kts | 299° |
| 2026-05-07 23:05 | 29.89929 | -98.81983 | 14109 ft | 167 kts | 299° |
| 2026-05-07 23:05 | 29.90669 | -98.83026 | 14117 ft | 168 kts | 299° |
| 2026-05-07 23:05 | 29.91399 | -98.84055 | 14110 ft | 167 kts | 299° |
| 2026-05-07 23:06 | 29.92136 | -98.85095 | 14122 ft | 167 kts | 299° |
| 2026-05-07 23:06 | 29.92875 | -98.86137 | 14123 ft | 168 kts | 299° |
| 2026-05-07 23:06 | 29.93616 | -98.87184 | 14130 ft | 169 kts | 299° |
| 2026-05-07 23:06 | 29.94357 | -98.88229 | 14129 ft | 168 kts | 299° |
| 2026-05-07 23:07 | 29.95094 | -98.89270 | 14132 ft | 167 kts | 299° |
| 2026-05-07 23:07 | 29.95830 | -98.90309 | 14136 ft | 167 kts | 299° |
| 2026-05-07 23:07 | 29.96564 | -98.91350 | 14139 ft | 167 kts | 299° |
| 2026-05-07 23:07 | 29.97302 | -98.92392 | 14144 ft | 168 kts | 299° |
| 2026-05-07 23:08 | 29.98041 | -98.93434 | 14141 ft | 167 kts | 299° |
| 2026-05-07 23:08 | 29.98776 | -98.94475 | 14149 ft | 167 kts | 299° |
| 2026-05-07 23:08 | 29.99502 | -98.95503 | 14148 ft | 167 kts | 299° |
| 2026-05-07 23:08 | 30.00237 | -98.96543 | 14152 ft | 167 kts | 299° |
| 2026-05-07 23:09 | 30.00974 | -98.97585 | 14150 ft | 168 kts | 299° |
| 2026-05-07 23:09 | 30.01713 | -98.98632 | 14155 ft | 168 kts | 299° |
| 2026-05-07 23:09 | 30.02452 | -98.99678 | 14153 ft | 168 kts | 299° |
| 2026-05-07 23:09 | 30.03193 | -99.00728 | 14150 ft | 169 kts | 299° |
| 2026-05-07 23:10 | 30.03934 | -99.01779 | 14156 ft | 169 kts | 299° |
| 2026-05-07 23:10 | 30.04677 | -99.02830 | 14152 ft | 169 kts | 299° |
| 2026-05-07 23:10 | 30.05421 | -99.03886 | 14154 ft | 169 kts | 299° |
| 2026-05-07 23:10 | 30.06168 | -99.04945 | 14146 ft | 169 kts | 299° |
| 2026-05-07 23:11 | 30.06903 | -99.05985 | 14151 ft | 169 kts | 299° |
| 2026-05-07 23:11 | 30.07646 | -99.07040 | 14147 ft | 170 kts | 299° |
| 2026-05-07 23:11 | 30.08389 | -99.08097 | 14151 ft | 170 kts | 299° |
| 2026-05-07 23:11 | 30.09126 | -99.09158 | 14160 ft | 170 kts | 297° |
| 2026-05-07 23:12 | 30.09868 | -99.10215 | 14161 ft | 167 kts | 295° |
| 2026-05-07 23:12 | 30.10418 | -99.11363 | 14157 ft | 160 kts | 284° |
| 2026-05-07 23:12 | 30.10743 | -99.12577 | 14151 ft | 156 kts | 274° |
| 2026-05-07 23:12 | 30.10852 | -99.13810 | 14151 ft | 153 kts | 266° |
| 2026-05-07 23:13 | 30.10752 | -99.15027 | 14154 ft | 152 kts | 257° |
| 2026-05-07 23:13 | 30.10519 | -99.16215 | 14144 ft | 151 kts | 256° |
| 2026-05-07 23:13 | 30.10298 | -99.17405 | 14150 ft | 151 kts | 256° |
| 2026-05-07 23:13 | 30.10072 | -99.18594 | 14144 ft | 151 kts | 256° |
| 2026-05-07 23:14 | 30.09848 | -99.19767 | 14149 ft | 152 kts | 256° |
| 2026-05-07 23:14 | 30.09620 | -99.20958 | 14147 ft | 152 kts | 256° |
| 2026-05-07 23:14 | 30.09393 | -99.22151 | 14146 ft | 152 kts | 256° |
| 2026-05-07 23:14 | 30.09164 | -99.23344 | 14143 ft | 152 kts | 256° |
| 2026-05-07 23:15 | 30.08937 | -99.24540 | 14139 ft | 152 kts | 256° |
| 2026-05-07 23:15 | 30.08707 | -99.25736 | 14139 ft | 152 kts | 256° |
| 2026-05-07 23:15 | 30.08479 | -99.26928 | 14135 ft | 152 kts | 256° |
| 2026-05-07 23:15 | 30.08251 | -99.28117 | 14134 ft | 152 kts | 256° |
| 2026-05-07 23:16 | 30.08023 | -99.29307 | 14129 ft | 152 kts | 256° |
| 2026-05-07 23:16 | 30.07796 | -99.30495 | 14132 ft | 152 kts | 256° |
| 2026-05-07 23:16 | 30.07567 | -99.31688 | 14125 ft | 152 kts | 256° |
| 2026-05-07 23:16 | 30.07338 | -99.32882 | 14122 ft | 152 kts | 256° |
| 2026-05-07 23:17 | 30.07108 | -99.34075 | 14124 ft | 152 kts | 256° |
| 2026-05-07 23:17 | 30.06880 | -99.35264 | 14122 ft | 152 kts | 256° |
| 2026-05-07 23:17 | 30.06650 | -99.36456 | 14119 ft | 152 kts | 256° |
| 2026-05-07 23:17 | 30.06424 | -99.37632 | 14092 ft | 152 kts | 256° |
| 2026-05-07 23:18 | 30.06194 | -99.38823 | 14068 ft | 152 kts | 257° |
| 2026-05-07 23:18 | 30.05963 | -99.40026 | 14068 ft | 154 kts | 257° |
| 2026-05-07 23:18 | 30.05731 | -99.41228 | 14071 ft | 154 kts | 257° |
| 2026-05-07 23:18 | 30.05498 | -99.42434 | 14070 ft | 154 kts | 257° |
| 2026-05-07 23:19 | 30.05266 | -99.43645 | 14071 ft | 155 kts | 256° |
| 2026-05-07 23:19 | 30.05031 | -99.44861 | 14068 ft | 155 kts | 256° |
| 2026-05-07 23:19 | 30.04795 | -99.46080 | 14070 ft | 156 kts | 257° |
| 2026-05-07 23:19 | 30.04562 | -99.47298 | 14077 ft | 154 kts | 256° |
| 2026-05-07 23:20 | 30.04327 | -99.48508 | 14074 ft | 154 kts | 256° |
| 2026-05-07 23:20 | 30.04097 | -99.49699 | 14073 ft | 154 kts | 256° |
| 2026-05-07 23:20 | 30.03864 | -99.50907 | 14078 ft | 154 kts | 256° |
| 2026-05-07 23:20 | 30.03629 | -99.52117 | 14077 ft | 154 kts | 256° |
| 2026-05-07 23:21 | 30.03394 | -99.53327 | 14077 ft | 155 kts | 256° |
| 2026-05-07 23:21 | 30.03159 | -99.54539 | 14068 ft | 155 kts | 256° |
| 2026-05-07 23:21 | 30.02924 | -99.55752 | 14071 ft | 154 kts | 256° |
| 2026-05-07 23:21 | 30.02690 | -99.56960 | 14071 ft | 154 kts | 256° |
| 2026-05-07 23:22 | 30.02456 | -99.58163 | 14067 ft | 154 kts | 256° |
| 2026-05-07 23:22 | 30.02223 | -99.59365 | 14068 ft | 153 kts | 256° |
| 2026-05-07 23:22 | 30.01988 | -99.60567 | 14069 ft | 153 kts | 256° |
| 2026-05-07 23:22 | 30.01755 | -99.61770 | 14069 ft | 154 kts | 256° |
| 2026-05-07 23:23 | 30.01516 | -99.62989 | 14071 ft | 157 kts | 256° |
| 2026-05-07 23:23 | 30.01283 | -99.64203 | 14072 ft | 156 kts | 256° |
| 2026-05-07 23:23 | 30.01046 | -99.65422 | 14070 ft | 155 kts | 256° |
| 2026-05-07 23:23 | 30.00810 | -99.66636 | 14071 ft | 155 kts | 256° |
| 2026-05-07 23:24 | 30.00573 | -99.67846 | 14073 ft | 154 kts | 256° |
| 2026-05-07 23:24 | 30.00338 | -99.69053 | 14062 ft | 154 kts | 256° |
| 2026-05-07 23:24 | 30.00102 | -99.70260 | 14064 ft | 154 kts | 256° |
| 2026-05-07 23:24 | 29.99867 | -99.71464 | 14063 ft | 154 kts | 256° |
| 2026-05-07 23:25 | 29.99632 | -99.72668 | 14058 ft | 154 kts | 256° |
| 2026-05-07 23:25 | 29.99396 | -99.73875 | 14063 ft | 154 kts | 256° |
| 2026-05-07 23:25 | 29.99160 | -99.75083 | 14058 ft | 154 kts | 256° |
| 2026-05-07 23:25 | 29.98927 | -99.76274 | 14058 ft | 154 kts | 256° |
| 2026-05-07 23:26 | 29.98692 | -99.77477 | 14059 ft | 154 kts | 256° |
| 2026-05-07 23:26 | 29.98455 | -99.78683 | 14052 ft | 154 kts | 256° |
| 2026-05-07 23:26 | 29.98220 | -99.79884 | 14056 ft | 154 kts | 256° |
| 2026-05-07 23:26 | 29.97983 | -99.81090 | 14059 ft | 154 kts | 256° |
| 2026-05-07 23:27 | 29.97511 | -99.83500 | 14056 ft | 154 kts | 256° |
| 2026-05-07 23:27 | 29.97275 | -99.84700 | 14057 ft | 153 kts | 256° |
| 2026-05-07 23:27 | 29.97041 | -99.85897 | 14050 ft | 153 kts | 255° |
| 2026-05-07 23:28 | 29.96808 | -99.87077 | 14057 ft | 152 kts | 256° |
| 2026-05-07 23:28 | 29.96574 | -99.88269 | 14057 ft | 153 kts | 256° |
| 2026-05-07 23:28 | 29.96339 | -99.89465 | 14055 ft | 153 kts | 255° |
| 2026-05-07 23:28 | 29.96104 | -99.90657 | 14054 ft | 153 kts | 256° |
| 2026-05-07 23:29 | 29.95869 | -99.91848 | 14055 ft | 152 kts | 256° |
| 2026-05-07 23:29 | 29.95712 | -99.92640 | 14055 ft | 152 kts | 255° |
| 2026-05-07 23:29 | 29.95479 | -99.93829 | 14057 ft | 152 kts | 255° |
| 2026-05-07 23:29 | 29.95245 | -99.95018 | 14060 ft | 152 kts | 255° |
| 2026-05-07 23:30 | 29.95011 | -99.96204 | 14057 ft | 153 kts | 255° |
| 2026-05-07 23:30 | 29.94771 | -99.97408 | 14059 ft | 155 kts | 255° |
| 2026-05-07 23:30 | 29.94529 | -99.98634 | 14049 ft | 157 kts | 255° |
| 2026-05-07 23:30 | 29.94286 | -99.99866 | 14048 ft | 159 kts | 255° |
| 2026-05-07 23:31 | 29.94040 | -100.01111 | 14052 ft | 159 kts | 256° |
| 2026-05-07 23:31 | 29.93794 | -100.02359 | 14054 ft | 160 kts | 256° |
| 2026-05-07 23:31 | 29.93548 | -100.03607 | 14056 ft | 160 kts | 256° |
| 2026-05-07 23:31 | 29.93300 | -100.04855 | 14047 ft | 159 kts | 255° |
| 2026-05-07 23:32 | 29.93024 | -100.06079 | 14055 ft | 160 kts | 250° |
| 2026-05-07 23:32 | 29.92554 | -100.07214 | 14063 ft | 160 kts | 241° |
| 2026-05-07 23:32 | 29.91900 | -100.08241 | 14065 ft | 163 kts | 233° |
| 2026-05-07 23:32 | 29.91120 | -100.09194 | 14060 ft | 163 kts | 232° |
| 2026-05-07 23:33 | 29.90351 | -100.10160 | 14060 ft | 163 kts | 232° |
| 2026-05-07 23:33 | 29.89579 | -100.11122 | 14048 ft | 163 kts | 232° |
| 2026-05-07 23:33 | 29.88810 | -100.12084 | 14052 ft | 163 kts | 232° |
| 2026-05-07 23:33 | 29.88036 | -100.13042 | 14043 ft | 163 kts | 231° |
| 2026-05-07 23:34 | 29.87269 | -100.14003 | 14042 ft | 162 kts | 233° |
| 2026-05-07 23:34 | 29.86503 | -100.14960 | 14040 ft | 162 kts | 232° |
| 2026-05-07 23:34 | 29.85731 | -100.15908 | 14045 ft | 162 kts | 232° |
| 2026-05-07 23:34 | 29.84962 | -100.16863 | 14040 ft | 163 kts | 232° |
| 2026-05-07 23:35 | 29.84192 | -100.17826 | 14041 ft | 163 kts | 232° |
| 2026-05-07 23:35 | 29.83421 | -100.18788 | 14042 ft | 164 kts | 232° |
| 2026-05-07 23:35 | 29.82646 | -100.19748 | 14038 ft | 164 kts | 232° |
| 2026-05-07 23:35 | 29.81870 | -100.20708 | 14046 ft | 164 kts | 232° |
| 2026-05-07 23:36 | 29.81104 | -100.21653 | 14045 ft | 163 kts | 233° |
| 2026-05-07 23:36 | 29.80338 | -100.22611 | 14047 ft | 162 kts | 233° |
| 2026-05-07 23:36 | 29.79570 | -100.23567 | 14041 ft | 162 kts | 233° |
| 2026-05-07 23:36 | 29.78802 | -100.24517 | 14038 ft | 162 kts | 233° |
| 2026-05-07 23:37 | 29.78037 | -100.25466 | 14044 ft | 161 kts | 233° |
| 2026-05-07 23:37 | 29.77273 | -100.26415 | 14040 ft | 161 kts | 233° |
| 2026-05-07 23:37 | 29.76508 | -100.27364 | 14028 ft | 161 kts | 233° |
| 2026-05-07 23:37 | 29.75759 | -100.28305 | 13798 ft | 160 kts | 234° |
| 2026-05-07 23:38 | 29.75008 | -100.29245 | 13437 ft | 159 kts | 233° |
| 2026-05-07 23:38 | 29.74252 | -100.30184 | 13006 ft | 160 kts | 233° |
| 2026-05-07 23:38 | 29.73493 | -100.31123 | 12617 ft | 160 kts | 233° |
| 2026-05-07 23:38 | 29.72733 | -100.32063 | 12219 ft | 160 kts | 233° |
| 2026-05-07 23:39 | 29.71982 | -100.32991 | 11842 ft | 161 kts | 232° |
| 2026-05-07 23:39 | 29.71220 | -100.33931 | 11462 ft | 160 kts | 232° |
| 2026-05-07 23:39 | 29.70455 | -100.34879 | 11026 ft | 164 kts | 232° |
| 2026-05-07 23:39 | 29.69670 | -100.35850 | 10615 ft | 167 kts | 231° |
| 2026-05-07 23:40 | 29.68878 | -100.36829 | 10255 ft | 167 kts | 231° |
| 2026-05-07 23:40 | 29.68087 | -100.37807 | 9904 ft | 167 kts | 232° |
| 2026-05-07 23:40 | 29.67295 | -100.38783 | 9521 ft | 167 kts | 231° |
| 2026-05-07 23:40 | 29.66500 | -100.39769 | 9120 ft | 169 kts | 231° |
| 2026-05-07 23:41 | 29.65701 | -100.40755 | 8759 ft | 169 kts | 230° |
| 2026-05-07 23:41 | 29.64898 | -100.41748 | 8395 ft | 170 kts | 229° |
| 2026-05-07 23:41 | 29.64093 | -100.42743 | 8010 ft | 171 kts | 229° |
| 2026-05-07 23:41 | 29.63286 | -100.43737 | 7652 ft | 172 kts | 229° |
| 2026-05-07 23:42 | 29.62467 | -100.44748 | 7302 ft | 173 kts | 227° |
| 2026-05-07 23:42 | 29.61642 | -100.45766 | 6967 ft | 174 kts | 228° |
| 2026-05-07 23:42 | 29.60820 | -100.46780 | 6650 ft | 174 kts | 227° |
| 2026-05-07 23:42 | 29.60004 | -100.47789 | 6366 ft | 171 kts | 226° |
| 2026-05-07 23:43 | 29.59186 | -100.48795 | 6034 ft | 172 kts | 226° |
| 2026-05-07 23:43 | 29.58403 | -100.49760 | 6007 ft | 158 kts | 225° |
| 2026-05-07 23:43 | 29.57676 | -100.50652 | 5996 ft | 149 kts | 225° |
| 2026-05-07 23:43 | 29.56985 | -100.51501 | 5998 ft | 142 kts | 225° |
| 2026-05-07 23:44 | 29.56313 | -100.52323 | 5998 ft | 147 kts | 223° |
| 2026-05-07 23:44 | 29.55570 | -100.53216 | 6010 ft | 161 kts | 225° |
| 2026-05-07 23:44 | 29.54783 | -100.54191 | 6019 ft | 170 kts | 225° |
| 2026-05-07 23:44 | 29.53970 | -100.55201 | 6018 ft | 175 kts | 225° |
| 2026-05-07 23:45 | 29.53145 | -100.56221 | 6020 ft | 178 kts | 225° |
| 2026-05-07 23:45 | 29.52297 | -100.57266 | 6019 ft | 179 kts | 225° |
| 2026-05-07 23:45 | 29.51475 | -100.58354 | 6006 ft | 182 kts | 234° |
| 2026-05-07 23:45 | 29.51015 | -100.59712 | 5999 ft | 185 kts | 256° |
| 2026-05-07 23:46 | 29.51014 | -100.61197 | 5997 ft | 189 kts | 278° |
| 2026-05-07 23:46 | 29.51501 | -100.62595 | 5998 ft | 191 kts | 301° |
| 2026-05-07 23:46 | 29.52309 | -100.63811 | 6005 ft | 191 kts | 303° |
| 2026-05-07 23:46 | 29.53043 | -100.65084 | 6007 ft | 191 kts | 300° |
| 2026-05-07 23:47 | 29.53714 | -100.66423 | 5851 ft | 195 kts | 296° |
| 2026-05-07 23:47 | 29.54303 | -100.67787 | 5598 ft | 189 kts | 292° |
| 2026-05-07 23:47 | 29.54799 | -100.69166 | 5351 ft | 184 kts | 289° |
| 2026-05-07 23:47 | 29.55205 | -100.70548 | 5110 ft | 181 kts | 286° |
| 2026-05-07 23:48 | 29.55529 | -100.71938 | 4857 ft | 179 kts | 283° |
| 2026-05-07 23:48 | 29.55775 | -100.73335 | 4632 ft | 177 kts | 279° |
| 2026-05-07 23:48 | 29.55942 | -100.74746 | 4394 ft | 182 kts | 275° |
| 2026-05-07 23:48 | 29.56034 | -100.76183 | 4158 ft | 189 kts | 272° |
| 2026-05-07 23:49 | 29.56045 | -100.77708 | 4005 ft | 188 kts | 269° |
| 2026-05-07 23:49 | 29.55972 | -100.79181 | 4006 ft | 182 kts | 264° |
| 2026-05-07 23:49 | 29.55823 | -100.80607 | 4004 ft | 178 kts | 261° |
| 2026-05-07 23:49 | 29.55602 | -100.81995 | 3997 ft | 176 kts | 257° |
| 2026-05-07 23:50 | 29.55308 | -100.83354 | 3996 ft | 175 kts | 253° |
| 2026-05-07 23:50 | 29.54950 | -100.84667 | 3991 ft | 174 kts | 249° |
| 2026-05-07 23:50 | 29.54519 | -100.85974 | 3876 ft | 178 kts | 245° |
| 2026-05-07 23:50 | 29.53994 | -100.87304 | 3657 ft | 186 kts | 242° |
| 2026-05-07 23:51 | 29.53374 | -100.88637 | 3399 ft | 191 kts | 238° |
| 2026-05-07 23:51 | 29.52669 | -100.89943 | 3154 ft | 192 kts | 234° |
| 2026-05-07 23:51 | 29.51857 | -100.91134 | 3021 ft | 184 kts | 217° |
| 2026-05-07 23:51 | 29.50777 | -100.91776 | 3012 ft | 169 kts | 193° |
| 2026-05-07 23:52 | 29.49657 | -100.91951 | 3017 ft | 160 kts | 172° |
| 2026-05-07 23:52 | 29.48566 | -100.91688 | 3027 ft | 161 kts | 152° |
| 2026-05-07 23:52 | 29.47623 | -100.91027 | 3032 ft | 158 kts | 134° |
| 2026-05-07 23:52 | 29.46894 | -100.90087 | 3036 ft | 158 kts | 127° |
| 2026-05-07 23:53 | 29.46151 | -100.89156 | 3012 ft | 159 kts | 135° |
| 2026-05-07 23:53 | 29.45294 | -100.88355 | 2915 ft | 159 kts | 137° |
| 2026-05-07 23:53 | 29.44447 | -100.87590 | 2749 ft | 148 kts | 134° |
| 2026-05-07 23:53 | 29.43739 | -100.86804 | 2524 ft | 142 kts | 128° |
| 2026-05-07 23:54 | 29.43083 | -100.85999 | 2482 ft | 130 kts | 127° |
| 2026-05-07 23:54 | 29.42511 | -100.85307 | 2459 ft | 112 kts | 126° |
| 2026-05-07 23:54 | 29.41990 | -100.84678 | 2392 ft | 106 kts | 126° |
| 2026-05-07 23:54 | 29.41482 | -100.84120 | 2315 ft | 93 kts | 130° |
| 2026-05-07 23:55 | 29.41016 | -100.83631 | 2197 ft | 88 kts | 128° |
| 2026-05-07 23:55 | 29.40580 | -100.83121 | 2116 ft | 91 kts | 124° |
| 2026-05-07 23:55 | 29.40130 | -100.82601 | 2094 ft | 94 kts | 127° |
| 2026-05-07 23:55 | 29.39654 | -100.82054 | 1955 ft | 99 kts | 128° |
| 2026-05-07 23:56 | 29.39173 | -100.81482 | 1828 ft | 100 kts | 131° |
| 2026-05-07 23:56 | 29.38648 | -100.80913 | 1655 ft | 105 kts | 133° |
| 2026-05-07 23:56 | 29.38133 | -100.80342 | 1524 ft | 100 kts | 131° |
| 2026-05-07 23:56 | 29.37643 | -100.79781 | 1375 ft | 101 kts | 133° |
| 2026-05-07 23:57 | 29.37150 | -100.79230 | 1266 ft | 100 kts | 133° |
| 2026-05-07 23:57 | 29.36657 | -100.78686 | 1133 ft | 93 kts | 132° |
| 2026-05-07 23:57 | 29.36248 | -100.78235 | 1084 ft | 69 kts | 130° |
| 2026-05-07 23:57 | 29.35954 | -100.77899 | 1082 ft | 53 kts | 134° |
| 2026-05-07 23:58 | 29.35761 | -100.77685 | 1083 ft | 24 kts | 135° |
| 2026-05-07 23:58 | 29.35645 | -100.77556 | 1086 ft | 22 kts | 136° |
| 2026-05-07 23:58 | 29.35534 | -100.77432 | 1087 ft | 22 kts | 135° |
| 2026-05-07 23:58 | 29.35427 | -100.77310 | 1088 ft | 21 kts | 135° |
| 2026-05-07 23:59 | 29.35333 | -100.77308 | 1088 ft | 13 kts | 251° |
| 2026-05-07 23:59 | 29.35302 | -100.77425 | 1092 ft | 18 kts | 255° |
| 2026-05-07 23:59 | 29.35268 | -100.77550 | 1091 ft | 0 kts | 249° |
| 2026-05-07 23:59 | 29.35266 | -100.77556 | 1091 ft | 6 kts | 248° |
| 2026-05-08 00:00 | 29.35285 | -100.77639 | 1090 ft | 16 kts | 318° |
| 2026-05-08 00:00 | 29.35379 | -100.77745 | 1089 ft | 21 kts | 314° |
| 2026-05-08 00:00 | 29.35469 | -100.77848 | 1088 ft | 17 kts | 312° |
| 2026-05-08 00:00 | 29.35557 | -100.77928 | 1087 ft | 18 kts | 334° |
| 2026-05-08 00:01 | 29.35645 | -100.78020 | 1086 ft | 16 kts | 317° |
| 2026-05-08 00:01 | 29.35660 | -100.78108 | 1086 ft | 15 kts | 225° |
| 2026-05-08 00:01 | 29.35638 | -100.78176 | 1086 ft | 0 kts | 321° |